Time;durP1;ratioP1;P1;durP2;ratioP2;P2;SDS_P1;SDS_P2;PMS_P1;PMS_P2;Temp;Humidity;BMP_temperature;BMP_pressure;BME280_temperature;BME280_humidity;BME280_pressure;Samples;Min_cycle;Max_cycle;Signal;HPM_P1;HPM_P2
2023/05/19 00:02:04;;;;;;;10.53;5.40;;;;;;;;;;5003841;28;20180;-78
2023/05/19 00:04:32;;;;;;;14.47;5.70;;;;;;;;;;5019533;28;20234;-78
2023/05/19 00:06:59;;;;;;;9.43;4.97;;;;;;;;;;5034809;28;20180;-78
2023/05/19 00:09:25;;;;;;;8.70;5.10;;;;;;;;;;5018443;28;20207;-78
2023/05/19 00:11:51;;;;;;;9.73;5.87;;;;;;;;;;5018417;28;20185;-81
2023/05/19 00:14:17;;;;;;;11.00;6.30;;;;;;;;;;5034665;28;20192;-81
2023/05/19 00:16:44;;;;;;;10.90;5.67;;;;;;;;;;5035901;28;20185;-81
2023/05/19 00:19:10;;;;;;;10.75;6.25;;;;;;;;;;5034036;28;20528;-81
2023/05/19 00:21:39;;;;;;;13.00;5.90;;;;;;;;;;5018365;28;20180;-81
2023/05/19 00:24:06;;;;;;;11.73;5.93;;;;;;;;;;5034113;28;20417;-81
2023/05/19 00:26:32;;;;;;;10.18;6.25;;;;;;;;;;5017468;28;20476;-81
2023/05/19 00:28:58;;;;;;;10.45;6.43;;;;;;;;;;5034391;28;20408;-90
2023/05/19 00:31:24;;;;;;;13.38;6.40;;;;;;;;;;5017925;28;20409;-89
2023/05/19 00:33:51;;;;;;;10.10;6.57;;;;;;;;;;5014214;28;20407;-90
2023/05/19 00:36:17;;;;;;;13.45;6.45;;;;;;;;;;5005194;28;20424;-90
2023/05/19 00:38:43;;;;;;;11.93;5.80;;;;;;;;;;5009234;28;20217;-90
2023/05/19 00:41:09;;;;;;;13.63;6.43;;;;;;;;;;4997709;28;20518;-90
2023/05/19 00:43:35;;;;;;;10.93;6.50;;;;;;;;;;5012966;28;20462;-90
2023/05/19 00:46:02;;;;;;;9.47;6.47;;;;;;;;;;5014717;28;20406;-80
2023/05/19 00:48:28;;;;;;;16.67;7.03;;;;;;;;;;5013411;28;20418;-80
2023/05/19 00:51:02;;;;;;;10.63;6.60;;;;;;;;;;5013447;28;20426;-80
2023/05/19 00:53:28;;;;;;;12.88;7.00;;;;;;;;;;5013613;28;20427;-80
2023/05/19 00:55:55;;;;;;;11.13;7.03;;;;;;;;;;5028863;28;20422;-80
2023/05/19 00:58:22;;;;;;;12.02;6.90;;;;;;;;;;5012712;28;20445;-80
2023/05/19 01:00:49;;;;;;;9.70;6.40;;;;;;;;;;5012122;28;20447;-80
2023/05/19 01:03:19;;;;;;;11.02;6.70;;;;;;;;;;5013222;28;20423;-81
2023/05/19 01:05:46;;;;;;;12.15;7.15;;;;;;;;;;5012001;28;20510;-80
2023/05/19 01:08:12;;;;;;;14.10;6.95;;;;;;;;;;5028160;28;20438;-80
2023/05/19 01:10:38;;;;;;;13.48;6.80;;;;;;;;;;5028997;28;20426;-80
2023/05/19 01:13:05;;;;;;;12.55;7.03;;;;;;;;;;5012256;28;20425;-80
2023/05/19 01:15:39;;;;;;;10.98;6.70;;;;;;;;;;5013261;28;20427;-80
2023/05/19 01:18:10;;;;;;;10.57;6.95;;;;;;;;;;5011770;28;20443;-83
2023/05/19 01:20:39;;;;;;;12.02;6.85;;;;;;;;;;4995610;28;20415;-83
2023/05/19 01:23:17;;;;;;;13.77;7.35;;;;;;;;;;5013769;28;20410;-83
2023/05/19 01:25:55;;;;;;;11.93;6.85;;;;;;;;;;4993964;28;20411;-83
2023/05/19 01:28:36;;;;;;;13.97;6.97;;;;;;;;;;4991999;28;20529;-83
2023/05/19 01:31:04;;;;;;;11.32;7.28;;;;;;;;;;4992738;28;20420;-83
2023/05/19 01:33:31;;;;;;;12.02;6.95;;;;;;;;;;5000308;28;20510;-83
2023/05/19 01:35:58;;;;;;;12.93;7.30;;;;;;;;;;4995329;28;20522;-83
2023/05/19 01:38:25;;;;;;;12.98;7.15;;;;;;;;;;5010585;28;20488;-83
2023/05/19 01:40:51;;;;;;;9.80;6.78;;;;;;;;;;4994227;28;20425;-83
2023/05/19 01:43:19;;;;;;;11.48;7.45;;;;;;;;;;4995387;28;20426;-83
2023/05/19 01:45:46;;;;;;;13.35;6.93;;;;;;;;;;4994789;28;20548;-83
2023/05/19 01:48:12;;;;;;;11.20;7.22;;;;;;;;;;5028361;28;20450;-83
2023/05/19 01:50:39;;;;;;;12.90;7.15;;;;;;;;;;5012365;28;20410;-83
2023/05/19 01:53:05;;;;;;;12.20;7.40;;;;;;;;;;4995513;28;20411;-83
2023/05/19 01:55:31;;;;;;;12.10;7.20;;;;;;;;;;4995518;28;20434;-83
2023/05/19 01:58:16;;;;;;;12.95;7.35;;;;;;;;;;4995556;28;20439;-83
2023/05/19 02:01:11;;;;;;;13.00;7.28;;;;;;;;;;5029695;28;20517;-83
2023/05/19 02:03:56;;;;;;;13.18;7.47;;;;;;;;;;5011784;28;20420;-83
2023/05/19 02:06:42;;;;;;;12.27;6.67;;;;;;;;;;5028652;28;20197;-83
2023/05/19 02:09:11;;;;;;;17.97;7.03;;;;;;;;;;4979229;28;20181;-78
2023/05/19 02:11:39;;;;;;;11.73;7.20;;;;;;;;;;4995401;28;20457;-79
2023/05/19 02:14:08;;;;;;;12.67;7.10;;;;;;;;;;4996083;28;20226;-78
2023/05/19 02:16:36;;;;;;;11.90;7.03;;;;;;;;;;5013292;28;20533;-78
2023/05/19 02:19:02;;;;;;;10.67;6.53;;;;;;;;;;4997872;28;20200;-78
2023/05/19 02:21:28;;;;;;;11.90;7.28;;;;;;;;;;4995676;28;20478;-78
2023/05/19 02:23:54;;;;;;;14.10;7.88;;;;;;;;;;4995391;28;20493;-82
2023/05/19 02:26:20;;;;;;;14.98;7.72;;;;;;;;;;4995088;28;20422;-82
2023/05/19 02:28:46;;;;;;;12.70;7.78;;;;;;;;;;4995002;28;20411;-83
2023/05/19 02:31:12;;;;;;;13.57;7.70;;;;;;;;;;4995489;28;20419;-83
2023/05/19 02:33:38;;;;;;;14.73;7.22;;;;;;;;;;4995980;28;20510;-83
2023/05/19 02:36:04;;;;;;;13.93;8.27;;;;;;;;;;5013944;28;20422;-83
2023/05/19 02:38:31;;;;;;;13.63;7.17;;;;;;;;;;4995681;28;20201;-83
2023/05/19 02:40:57;;;;;;;13.07;8.35;;;;;;;;;;4995120;28;20462;-81
2023/05/19 02:43:23;;;;;;;12.93;8.88;;;;;;;;;;4995675;28;20419;-81
2023/05/19 02:45:49;;;;;;;12.95;8.40;;;;;;;;;;4996030;28;20411;-81
2023/05/19 02:48:15;;;;;;;13.80;9.45;;;;;;;;;;5011987;28;20513;-81
2023/05/19 02:50:41;;;;;;;12.65;8.32;;;;;;;;;;4995967;28;20506;-81
2023/05/19 02:53:07;;;;;;;14.38;8.95;;;;;;;;;;5009474;28;20444;-81
2023/05/19 02:55:33;;;;;;;13.15;8.45;;;;;;;;;;4999796;28;20407;-81
2023/05/19 02:57:59;;;;;;;14.43;9.00;;;;;;;;;;4995643;28;20434;-78
2023/05/19 03:00:25;;;;;;;14.77;8.98;;;;;;;;;;5011030;28;20443;-78
2023/05/19 03:02:51;;;;;;;15.38;9.38;;;;;;;;;;5009534;28;20419;-78
2023/05/19 03:05:18;;;;;;;14.25;9.43;;;;;;;;;;5011323;28;20426;-78
2023/05/19 03:07:45;;;;;;;13.57;8.98;;;;;;;;;;4994938;28;20453;-78
2023/05/19 03:10:11;;;;;;;12.93;8.93;;;;;;;;;;4994955;28;20449;-78
2023/05/19 03:12:37;;;;;;;14.98;9.38;;;;;;;;;;4995294;28;20416;-78
2023/05/19 03:15:03;;;;;;;15.15;8.90;;;;;;;;;;4995512;28;20418;-83
2023/05/19 03:17:32;;;;;;;13.77;8.17;;;;;;;;;;4995842;28;20186;-83
2023/05/19 03:19:59;;;;;;;14.27;9.10;;;;;;;;;;4995197;28;20418;-83
2023/05/19 03:22:25;;;;;;;14.73;9.30;;;;;;;;;;4995209;28;20467;-83
2023/05/19 03:24:53;;;;;;;13.95;9.00;;;;;;;;;;4995299;28;20411;-83
2023/05/19 03:27:19;;;;;;;15.73;8.20;;;;;;;;;;5011961;28;20252;-83
2023/05/19 03:29:45;;;;;;;16.08;8.23;;;;;;;;;;5009866;28;20523;-83
2023/05/19 03:32:11;;;;;;;14.13;9.20;;;;;;;;;;5012402;28;20440;-91
2023/05/19 03:34:37;;;;;;;14.00;8.27;;;;;;;;;;5012839;28;20273;-90
2023/05/19 03:37:03;;;;;;;15.65;9.43;;;;;;;;;;5019870;28;20439;-90
2023/05/19 03:39:29;;;;;;;17.73;10.00;;;;;;;;;;4998956;28;20462;-91
2023/05/19 03:41:55;;;;;;;13.55;9.02;;;;;;;;;;5015453;28;20415;-90
2023/05/19 03:44:21;;;;;;;15.43;9.93;;;;;;;;;;5014676;28;20478;-90
2023/05/19 03:46:47;;;;;;;14.77;9.77;;;;;;;;;;5018480;28;20457;-90
2023/05/19 03:49:13;;;;;;;12.73;9.40;;;;;;;;;;5018088;28;20410;-78
2023/05/19 03:51:39;;;;;;;15.77;9.45;;;;;;;;;;5034132;28;20437;-78
2023/05/19 03:54:06;;;;;;;11.43;8.47;;;;;;;;;;5018768;28;20188;-78
2023/05/19 03:56:32;;;;;;;12.90;7.97;;;;;;;;;;5018800;28;20184;-78
2023/05/19 03:58:58;;;;;;;12.97;7.93;;;;;;;;;;5018953;28;20212;-78
2023/05/19 04:01:24;;;;;;;12.87;8.47;;;;;;;;;;5018571;28;20290;-78
2023/05/19 04:03:50;;;;;;;13.20;8.30;;;;;;;;;;5035331;28;20184;-78
2023/05/19 04:06:17;;;;;;;13.03;8.37;;;;;;;;;;5000842;28;20181;-89
2023/05/19 04:08:43;;;;;;;13.43;9.07;;;;;;;;;;4999085;28;20189;-90
2023/05/19 04:11:09;;;;;;;12.97;8.17;;;;;;;;;;4998999;28;20214;-90
2023/05/19 04:13:35;;;;;;;13.57;8.27;;;;;;;;;;4998963;28;20185;-90
2023/05/19 04:16:01;;;;;;;14.20;9.30;;;;;;;;;;4998549;28;20450;-90
2023/05/19 04:18:27;;;;;;;13.23;8.37;;;;;;;;;;5015475;28;20223;-90
2023/05/19 04:20:53;;;;;;;13.57;8.43;;;;;;;;;;5018519;28;20180;-81
2023/05/19 04:23:19;;;;;;;15.53;8.53;;;;;;;;;;5035794;28;20181;-81
2023/05/19 04:25:47;;;;;;;11.47;7.90;;;;;;;;;;5018499;28;20181;-81
2023/05/19 04:28:13;;;;;;;15.32;8.75;;;;;;;;;;5018279;28;20417;-81
2023/05/19 04:30:41;;;;;;;15.63;8.67;;;;;;;;;;5018261;28;20176;-81
2023/05/19 04:33:08;;;;;;;10.37;8.10;;;;;;;;;;5018761;28;20184;-81
2023/05/19 04:35:34;;;;;;;13.73;8.57;;;;;;;;;;5034581;28;20169;-81
2023/05/19 04:38:00;;;;;;;13.32;9.00;;;;;;;;;;5016935;28;20432;-82
2023/05/19 04:40:29;;;;;;;12.57;8.87;;;;;;;;;;5000386;28;20177;-82
2023/05/19 04:42:56;;;;;;;12.50;8.07;;;;;;;;;;5014880;28;20214;-82
2023/05/19 04:45:22;;;;;;;12.87;8.33;;;;;;;;;;4997333;28;20221;-82
2023/05/19 04:47:48;;;;;;;13.27;7.90;;;;;;;;;;5015801;28;20173;-82
2023/05/19 04:50:15;;;;;;;15.10;8.83;;;;;;;;;;4998005;28;20185;-82
2023/05/19 04:52:44;;;;;;;14.40;8.10;;;;;;;;;;5030474;28;20223;-82
2023/05/19 04:55:10;;;;;;;12.73;8.07;;;;;;;;;;4997942;28;20173;-89
2023/05/19 04:57:37;;;;;;;13.82;9.05;;;;;;;;;;4997698;28;20411;-90
2023/05/19 05:00:06;;;;;;;13.57;9.00;;;;;;;;;;5015021;28;20430;-90
2023/05/19 05:02:33;;;;;;;17.90;8.20;;;;;;;;;;4997729;28;20196;-89
2023/05/19 05:04:59;;;;;;;15.20;8.77;;;;;;;;;;4997529;28;20178;-89
2023/05/19 05:07:25;;;;;;;13.17;8.20;;;;;;;;;;4982275;28;20188;-89
2023/05/19 05:09:51;;;;;;;13.10;7.63;;;;;;;;;;5011624;28;20270;-89
2023/05/19 05:12:18;;;;;;;12.27;8.07;;;;;;;;;;4998056;28;20192;-82
2023/05/19 05:14:44;;;;;;;9.90;7.43;;;;;;;;;;4997365;28;20177;-82
2023/05/19 05:17:11;;;;;;;12.73;7.77;;;;;;;;;;4997379;28;20204;-82
2023/05/19 05:19:37;;;;;;;12.90;8.00;;;;;;;;;;4981323;28;20311;-82
2023/05/19 05:22:05;;;;;;;15.20;8.47;;;;;;;;;;4981422;28;20180;-83
2023/05/19 05:24:31;;;;;;;13.30;7.73;;;;;;;;;;4998536;28;20192;-82
2023/05/19 05:26:57;;;;;;;12.87;7.87;;;;;;;;;;5017247;28;20248;-82
2023/05/19 05:29:24;;;;;;;11.37;8.10;;;;;;;;;;5016943;28;20181;-82
2023/05/19 05:31:50;;;;;;;11.90;8.03;;;;;;;;;;5009503;28;20236;-82
2023/05/19 05:34:16;;;;;;;13.67;7.93;;;;;;;;;;5029916;28;20200;-82
2023/05/19 05:36:42;;;;;;;11.43;7.43;;;;;;;;;;5029855;28;20196;-82
2023/05/19 05:39:08;;;;;;;15.53;7.93;;;;;;;;;;4997033;28;20213;-83
2023/05/19 05:41:35;;;;;;;13.37;7.80;;;;;;;;;;4982476;28;20189;-82
2023/05/19 05:44:01;;;;;;;11.73;7.67;;;;;;;;;;5033488;28;20180;-79
2023/05/19 05:46:27;;;;;;;11.37;7.87;;;;;;;;;;5032849;28;20185;-78
2023/05/19 05:48:53;;;;;;;11.13;7.63;;;;;;;;;;4985838;28;20200;-79
2023/05/19 05:51:23;;;;;;;12.03;7.33;;;;;;;;;;4977299;28;20185;-79
2023/05/19 05:53:53;;;;;;;9.93;7.33;;;;;;;;;;5015148;28;20181;-79
2023/05/19 05:56:20;;;;;;;12.43;7.67;;;;;;;;;;5013987;28;20177;-79
2023/05/19 05:58:46;;;;;;;13.27;7.60;;;;;;;;;;5000121;28;20262;-79
2023/05/19 06:01:15;;;;;;;10.70;6.93;;;;;;;;;;5018359;28;20225;-79
2023/05/19 06:03:45;;;;;;;13.13;7.03;;;;;;;;;;5013268;28;20181;-79
2023/05/19 06:06:11;;;;;;;14.50;7.10;;;;;;;;;;5013215;28;20189;-79
2023/05/19 06:08:37;;;;;;;11.10;7.47;;;;;;;;;;5007831;28;20196;-78
2023/05/19 06:11:07;;;;;;;12.10;7.20;;;;;;;;;;5002903;28;20186;-78
2023/05/19 06:13:34;;;;;;;9.07;5.30;;;;;;;;;;5012117;28;20251;-79
2023/05/19 06:16:01;;;;;;;11.13;6.80;;;;;;;;;;5028033;28;20462;-79
2023/05/19 06:18:27;;;;;;;11.95;6.90;;;;;;;;;;5028375;28;20435;-79
2023/05/19 06:20:53;;;;;;;11.73;6.83;;;;;;;;;;5011499;28;20434;-79
2023/05/19 06:23:19;;;;;;;13.43;7.28;;;;;;;;;;5025460;28;20435;-79
2023/05/19 06:25:45;;;;;;;10.63;7.40;;;;;;;;;;5028281;28;20461;-78
2023/05/19 06:28:11;;;;;;;12.10;7.03;;;;;;;;;;4991450;28;20416;-78
2023/05/19 06:30:37;;;;;;;10.68;6.97;;;;;;;;;;4979137;28;20473;-78
2023/05/19 06:33:03;;;;;;;10.75;7.00;;;;;;;;;;5014453;28;20407;-78
2023/05/19 06:35:30;;;;;;;10.38;6.95;;;;;;;;;;5011530;28;20414;-88
2023/05/19 06:37:56;;;;;;;14.05;7.30;;;;;;;;;;5012869;28;20528;-88
2023/05/19 06:40:23;;;;;;;10.32;6.40;;;;;;;;;;4995315;28;20410;-88
2023/05/19 06:42:48;;;;;;;11.75;6.95;;;;;;;;;;4975832;28;20427;-88
2023/05/19 06:45:15;;;;;;;12.20;6.50;;;;;;;;;;5012132;28;20415;-89
2023/05/19 06:47:41;;;;;;;13.37;6.57;;;;;;;;;;4978809;28;20509;-89
2023/05/19 06:50:08;;;;;;;12.43;6.33;;;;;;;;;;4995825;28;20483;-88
2023/05/19 06:52:34;;;;;;;12.67;6.40;;;;;;;;;;4995655;28;20177;-81
2023/05/19 06:55:00;;;;;;;12.37;6.30;;;;;;;;;;5011562;28;20189;-81
2023/05/19 06:57:26;;;;;;;11.20;5.90;;;;;;;;;;4994111;28;20208;-80
2023/05/19 06:59:52;;;;;;;8.67;5.60;;;;;;;;;;5013162;28;20316;-81
2023/05/19 07:02:18;;;;;;;11.05;6.88;;;;;;;;;;5011844;28;20481;-80
2023/05/19 07:04:44;;;;;;;13.27;6.70;;;;;;;;;;5015212;28;20463;-81
2023/05/19 07:07:10;;;;;;;11.05;7.07;;;;;;;;;;4995528;28;20458;-80
2023/05/19 07:09:36;;;;;;;13.10;6.22;;;;;;;;;;4982659;28;20108;-89
2023/05/19 07:12:02;;;;;;;12.63;6.80;;;;;;;;;;4989819;28;20415;-90
2023/05/19 07:14:28;;;;;;;10.80;6.63;;;;;;;;;;4998299;28;20422;-89
2023/05/19 07:16:54;;;;;;;11.07;6.15;;;;;;;;;;5014861;28;20435;-86
2023/05/19 07:19:21;;;;;;;11.20;6.30;;;;;;;;;;4999367;28;20465;-89
2023/05/19 07:21:47;;;;;;;9.57;5.45;;;;;;;;;;4999726;28;20418;-89
2023/05/19 07:24:13;;;;;;;10.50;5.40;;;;;;;;;;5032292;28;20411;-81
2023/05/19 07:26:39;;;;;;;12.27;5.30;;;;;;;;;;4999822;28;20189;-81
2023/05/19 07:29:05;;;;;;;12.05;6.07;;;;;;;;;;5016019;28;20470;-81
2023/05/19 07:31:32;;;;;;;10.07;5.30;;;;;;;;;;5017368;28;20178;-81
2023/05/19 07:33:58;;;;;;;12.68;6.32;;;;;;;;;;5016138;28;20445;-81
2023/05/19 07:36:24;;;;;;;9.07;5.70;;;;;;;;;;5031925;28;20448;-81
2023/05/19 07:38:50;;;;;;;9.90;5.90;;;;;;;;;;5031461;28;20459;-81
2023/05/19 07:41:16;;;;;;;10.13;5.60;;;;;;;;;;5032151;28;20475;-81
2023/05/19 07:43:42;;;;;;;10.80;5.70;;;;;;;;;;5015993;28;20443;-81
2023/05/19 07:46:08;;;;;;;11.43;5.88;;;;;;;;;;5015250;28;20415;-81
2023/05/19 07:48:34;;;;;;;12.27;5.60;;;;;;;;;;4999133;28;20423;-81
2023/05/19 07:51:01;;;;;;;9.73;5.13;;;;;;;;;;5001804;28;20436;-81
2023/05/19 07:53:27;;;;;;;9.70;5.20;;;;;;;;;;4978786;28;20416;-81
2023/05/19 07:55:53;;;;;;;8.93;5.03;;;;;;;;;;4984689;28;20427;-81
2023/05/19 07:58:19;;;;;;;11.17;4.90;;;;;;;;;;5015273;28;20240;-89
2023/05/19 08:00:45;;;;;;;9.47;4.30;;;;;;;;;;5034461;23;20228;-81
2023/05/19 08:03:12;;;;;;;9.13;4.60;;;;;;;;;;5021079;28;20427;-81
2023/05/19 08:05:38;;;;;;;11.83;4.87;;;;;;;;;;5024056;28;20282;-81
2023/05/19 08:08:04;;;;;;;8.53;4.30;;;;;;;;;;5046996;28;20176;-81
2023/05/19 08:10:30;;;;;;;10.87;4.10;;;;;;;;;;5051287;28;20273;-81
2023/05/19 08:12:56;;;;;;;8.53;4.20;;;;;;;;;;5037336;28;20207;-81
2023/05/19 08:15:22;;;;;;;9.25;4.30;;;;;;;;;;5037551;28;20408;-81
2023/05/19 08:17:48;;;;;;;9.47;4.30;;;;;;;;;;5022344;28;20210;-81
2023/05/19 08:20:14;;;;;;;9.33;3.60;;;;;;;;;;5022521;28;20210;-81
2023/05/19 08:22:40;;;;;;;8.20;4.17;;;;;;;;;;5019627;28;20423;-81
2023/05/19 08:25:06;;;;;;;10.63;4.03;;;;;;;;;;5047341;28;20184;-81
2023/05/19 08:27:32;;;;;;;10.93;3.73;;;;;;;;;;5037027;28;20179;-81
2023/05/19 08:29:59;;;;;;;6.23;3.70;;;;;;;;;;5055572;28;20191;-81
2023/05/19 08:32:25;;;;;;;7.53;3.70;;;;;;;;;;5055472;28;20210;-81
2023/05/19 08:34:51;;;;;;;9.30;3.80;;;;;;;;;;5067027;28;20330;-81
2023/05/19 08:37:17;;;;;;;8.30;4.03;;;;;;;;;;5058234;28;20266;-83
2023/05/19 08:39:43;;;;;;;9.07;3.80;;;;;;;;;;5057799;28;20219;-83
2023/05/19 08:42:10;;;;;;;9.07;4.10;;;;;;;;;;5054961;28;20488;-82
2023/05/19 08:44:38;;;;;;;10.65;4.20;;;;;;;;;;5036983;28;20414;-82
2023/05/19 08:47:06;;;;;;;8.75;4.15;;;;;;;;;;5054816;28;20407;-82
2023/05/19 08:49:33;;;;;;;9.17;3.50;;;;;;;;;;5054786;28;20200;-88
2023/05/19 08:52:20;;;;;;;7.25;3.58;;;;;;;;;;5054525;28;20435;-88
2023/05/19 08:54:52;;;;;;;11.33;3.73;;;;;;;;;;5014772;28;20187;-88
2023/05/19 08:57:18;;;;;;;7.32;3.53;;;;;;;;;;5053548;28;20423;-89
2023/05/19 08:59:44;;;;;;;7.88;3.28;;;;;;;;;;5037079;28;20482;-88
2023/05/19 09:02:12;;;;;;;7.68;3.10;;;;;;;;;;5030067;28;20431;-88
2023/05/19 09:04:39;;;;;;;7.93;3.40;;;;;;;;;;5045877;28;20413;-88
2023/05/19 09:07:05;;;;;;;6.60;2.88;;;;;;;;;;5058624;28;20417;-89
2023/05/19 09:09:31;;;;;;;155.55;142.02;;;;;;;;;;5049233;28;20512;-88
2023/05/19 09:11:58;;;;;;;10.65;8.25;;;;;;;;;;5030949;28;20496;-88
2023/05/19 09:14:24;;;;;;;9.95;5.70;;;;;;;;;;5033483;28;20405;-89
2023/05/19 09:16:51;;;;;;;8.10;4.20;;;;;;;;;;5032906;28;20441;-88
2023/05/19 09:19:20;;;;;;;9.20;3.80;;;;;;;;;;5017734;28;20500;-88
2023/05/19 09:21:46;;;;;;;6.50;3.28;;;;;;;;;;5051753;28;20411;-79
2023/05/19 09:24:12;;;;;;;5.65;2.92;;;;;;;;;;5053466;28;20522;-79
2023/05/19 09:26:39;;;;;;;7.70;2.95;;;;;;;;;;5052255;28;20400;-79
2023/05/19 09:29:15;;;;;;;5.35;2.40;;;;;;;;;;5018940;28;20421;-79
2023/05/19 09:31:51;;;;;;;7.40;2.70;;;;;;;;;;5036587;28;20736;-79
2023/05/19 09:34:17;;;;;;;6.43;2.47;;;;;;;;;;5036126;28;20465;-79
2023/05/19 09:36:43;;;;;;;6.75;2.80;;;;;;;;;;5036035;28;20415;-79
2023/05/19 09:39:13;;;;;;;8.07;2.70;;;;;;;;;;5035870;28;20428;-81
2023/05/19 09:41:39;;;;;;;6.63;2.50;;;;;;;;;;5057700;28;20760;-81
2023/05/19 09:44:06;;;;;;;6.78;2.88;;;;;;;;;;5056067;28;20410;-81
2023/05/19 09:46:34;;;;;;;6.23;2.60;;;;;;;;;;5039682;28;20394;-81
2023/05/19 09:49:00;;;;;;;8.23;3.00;;;;;;;;;;5043632;28;20416;-79
2023/05/19 09:51:26;;;;;;;142.02;129.23;;;;;;;;;;5036274;28;20491;-79
2023/05/19 09:53:52;;;;;;;6.67;2.80;;;;;;;;;;5036127;28;20478;-77
2023/05/19 09:56:22;;;;;;;166.45;148.88;;;;;;;;;;5021072;28;20410;-77
2023/05/19 09:58:48;;;;;;;7.50;2.90;;;;;;;;;;5036451;28;20518;-77
2023/05/19 10:01:14;;;;;;;6.72;2.72;;;;;;;;;;5052349;28;20481;-77
2023/05/19 10:03:41;;;;;;;9.02;2.72;;;;;;;;;;5052455;28;20435;-77
2023/05/19 10:06:08;;;;;;;6.57;2.70;;;;;;;;;;5036496;28;20443;-77
2023/05/19 10:08:34;;;;;;;7.00;2.67;;;;;;;;;;5054260;28;20176;-77
2023/05/19 10:11:01;;;;;;;6.55;3.10;;;;;;;;;;5038549;28;20418;-82
2023/05/19 10:13:28;;;;;;;7.82;2.85;;;;;;;;;;5016276;28;20409;-82
2023/05/19 10:15:55;;;;;;;7.88;2.85;;;;;;;;;;5016040;28;20439;-82
2023/05/19 10:18:22;;;;;;;5.53;2.70;;;;;;;;;;5032427;28;20445;-81
2023/05/19 10:20:49;;;;;;;6.20;2.53;;;;;;;;;;5015909;28;20449;-82
2023/05/19 10:23:15;;;;;;;8.27;2.90;;;;;;;;;;5015650;28;20492;-81
2023/05/19 10:25:42;;;;;;;6.70;2.80;;;;;;;;;;5032684;28;20417;-82
2023/05/19 10:28:11;;;;;;;6.60;2.92;;;;;;;;;;5032266;28;20417;-84
2023/05/19 10:30:39;;;;;;;10.15;2.95;;;;;;;;;;5016202;28;20417;-84
2023/05/19 10:33:08;;;;;;;7.03;2.90;;;;;;;;;;5015722;28;20427;-84
2023/05/19 10:35:53;;;;;;;7.80;3.00;;;;;;;;;;5033046;28;20401;-84
2023/05/19 10:38:33;;;;;;;8.00;2.77;;;;;;;;;;5038468;28;20425;-83
2023/05/19 10:40:59;;;;;;;8.65;2.80;;;;;;;;;;5068370;28;20411;-82
2023/05/19 10:43:48;;;;;;;5.82;2.60;;;;;;;;;;5054550;28;20415;-82
2023/05/19 10:46:14;;;;;;;7.43;2.80;;;;;;;;;;5057208;28;20411;-86
2023/05/19 10:48:44;;;;;;;7.45;2.95;;;;;;;;;;5040065;28;20411;-86
2023/05/19 10:51:11;;;;;;;6.57;2.75;;;;;;;;;;5049895;28;20430;-86
2023/05/19 10:53:40;;;;;;;7.80;2.63;;;;;;;;;;5033677;28;20267;-86
2023/05/19 10:56:08;;;;;;;5.93;2.60;;;;;;;;;;5057534;28;20499;-85
2023/05/19 10:58:38;;;;;;;5.67;2.50;;;;;;;;;;5036754;28;20433;-85
2023/05/19 11:01:08;;;;;;;5.55;2.83;;;;;;;;;;5019492;28;20416;-77
2023/05/19 11:03:45;;;;;;;6.93;2.85;;;;;;;;;;5033175;28;20499;-78
2023/05/19 11:06:17;;;;;;;9.48;3.00;;;;;;;;;;5056739;28;20497;-77
2023/05/19 11:08:44;;;;;;;7.00;2.72;;;;;;;;;;5044736;28;20417;-77
2023/05/19 11:11:15;;;;;;;6.15;2.90;;;;;;;;;;5049210;28;20430;-78
2023/05/19 11:13:43;;;;;;;6.40;3.03;;;;;;;;;;5058415;28;20414;-78
2023/05/19 11:16:09;;;;;;;7.00;2.63;;;;;;;;;;5076232;28;20487;-78
2023/05/19 11:18:37;;;;;;;6.47;2.57;;;;;;;;;;5041080;28;20460;-78
2023/05/19 11:21:03;;;;;;;5.85;2.65;;;;;;;;;;5057082;28;20485;-78
2023/05/19 11:23:33;;;;;;;5.05;2.88;;;;;;;;;;5055668;28;20437;-77
2023/05/19 11:26:01;;;;;;;4.78;2.50;;;;;;;;;;5040238;28;20435;-78
2023/05/19 11:28:28;;;;;;;7.55;3.00;;;;;;;;;;5055359;28;20426;-78
2023/05/19 11:30:56;;;;;;;6.75;2.90;;;;;;;;;;5057898;28;20410;-77
2023/05/19 11:33:26;;;;;;;7.22;2.90;;;;;;;;;;5051521;28;20521;-78
2023/05/19 11:35:53;;;;;;;8.55;2.90;;;;;;;;;;5062105;28;20426;-77
2023/05/19 11:38:20;;;;;;;6.40;2.50;;;;;;;;;;5057789;28;20430;-78
2023/05/19 11:40:48;;;;;;;6.30;2.80;;;;;;;;;;5036385;28;20428;-77
2023/05/19 11:43:15;;;;;;;6.18;3.00;;;;;;;;;;5041051;28;20515;-78
2023/05/19 11:45:42;;;;;;;7.57;2.90;;;;;;;;;;5054517;28;20408;-78
2023/05/19 11:48:11;;;;;;;6.32;2.92;;;;;;;;;;5033079;28;20441;-78
2023/05/19 11:50:40;;;;;;;8.07;3.00;;;;;;;;;;5049857;28;20428;-77
2023/05/19 11:53:06;;;;;;;6.75;2.95;;;;;;;;;;5043415;28;20491;-78
2023/05/19 11:55:32;;;;;;;7.35;2.80;;;;;;;;;;5058445;28;20475;-78
2023/05/19 11:57:59;;;;;;;7.50;3.22;;;;;;;;;;5067124;28;20425;-78
2023/05/19 12:00:25;;;;;;;6.70;3.10;;;;;;;;;;5040820;28;20434;-78
2023/05/19 12:02:52;;;;;;;7.93;3.28;;;;;;;;;;5038935;28;20430;-77
2023/05/19 12:05:19;;;;;;;5.60;2.85;;;;;;;;;;5063117;28;20450;-77
2023/05/19 12:07:48;;;;;;;7.75;2.90;;;;;;;;;;5037613;28;20408;-82
2023/05/19 12:10:14;;;;;;;7.68;3.10;;;;;;;;;;5022423;28;20448;-83
2023/05/19 12:12:40;;;;;;;8.15;2.90;;;;;;;;;;5037428;28;20404;-83
2023/05/19 12:15:07;;;;;;;7.47;3.10;;;;;;;;;;5040354;28;20427;-82
2023/05/19 12:17:33;;;;;;;6.57;3.00;;;;;;;;;;5031731;28;20488;-83
2023/05/19 12:20:00;;;;;;;6.32;3.05;;;;;;;;;;5031488;28;20444;-82
2023/05/19 12:22:26;;;;;;;5.40;2.70;;;;;;;;;;5046897;28;20422;-83
2023/05/19 12:24:52;;;;;;;6.47;2.80;;;;;;;;;;5040871;28;20445;-87
2023/05/19 12:27:27;;;;;;;10.53;6.63;;;;;;;;;;5071401;28;20442;-86
2023/05/19 12:29:54;;;;;;;6.45;3.17;;;;;;;;;;5040993;28;20407;-87
2023/05/19 12:32:24;;;;;;;8.40;3.60;;;;;;;;;;5057797;28;20430;-87
2023/05/19 12:34:50;;;;;;;7.53;3.60;;;;;;;;;;5036753;28;20411;-87
2023/05/19 12:37:18;;;;;;;6.47;3.42;;;;;;;;;;5054810;28;20403;-87
2023/05/19 12:39:44;;;;;;;6.30;3.08;;;;;;;;;;5051814;28;20435;-87
2023/05/19 12:42:14;;;;;;;8.40;4.27;;;;;;;;;;5041647;28;20491;-79
2023/05/19 12:44:47;;;;;;;7.90;3.20;;;;;;;;;;5056546;28;20410;-80
2023/05/19 12:47:13;;;;;;;6.55;2.90;;;;;;;;;;5056611;28;20502;-80
2023/05/19 12:49:58;;;;;;;11.30;3.30;;;;;;;;;;5048711;28;20558;-80
2023/05/19 12:52:24;;;;;;;6.70;3.10;;;;;;;;;;5053063;28;20628;-80
2023/05/19 12:54:57;;;;;;;7.40;2.90;;;;;;;;;;5040143;28;20433;-79
2023/05/19 12:57:23;;;;;;;7.15;3.28;;;;;;;;;;5046995;28;20448;-87
2023/05/19 12:59:49;;;;;;;7.40;3.30;;;;;;;;;;5035052;28;20471;-87
2023/05/19 13:02:16;;;;;;;6.72;3.20;;;;;;;;;;5046404;28;20424;-87
2023/05/19 13:04:42;;;;;;;6.55;3.05;;;;;;;;;;5051588;28;20414;-87
2023/05/19 13:07:08;;;;;;;7.25;3.03;;;;;;;;;;5034570;28;20411;-87
2023/05/19 13:09:35;;;;;;;7.05;3.00;;;;;;;;;;5035046;28;20408;-88
2023/05/19 13:12:01;;;;;;;6.68;3.00;;;;;;;;;;5035913;28;20452;-87
2023/05/19 13:14:27;;;;;;;9.23;3.60;;;;;;;;;;5036561;28;20558;-83
2023/05/19 13:16:53;;;;;;;7.20;3.20;;;;;;;;;;5049764;28;20455;-83
2023/05/19 13:19:19;;;;;;;7.03;3.03;;;;;;;;;;5036216;28;20533;-83
2023/05/19 13:21:46;;;;;;;7.25;2.92;;;;;;;;;;5036149;28;20410;-84
2023/05/19 13:24:12;;;;;;;8.00;2.97;;;;;;;;;;5053050;28;20399;-83
2023/05/19 13:26:39;;;;;;;6.15;2.90;;;;;;;;;;5035474;28;20567;-84
2023/05/19 13:29:05;;;;;;;7.45;2.83;;;;;;;;;;5032251;28;20414;-84
2023/05/19 13:31:31;;;;;;;7.60;2.80;;;;;;;;;;5033132;28;20451;-78
2023/05/19 13:33:57;;;;;;;7.50;3.03;;;;;;;;;;5016267;28;20437;-78
2023/05/19 13:36:25;;;;;;;6.60;2.90;;;;;;;;;;5026594;28;20424;-78
2023/05/19 13:38:51;;;;;;;7.30;2.83;;;;;;;;;;5035600;28;20466;-78
2023/05/19 13:41:17;;;;;;;9.13;2.90;;;;;;;;;;5052388;28;20439;-78
2023/05/19 13:43:43;;;;;;;6.85;2.90;;;;;;;;;;5035747;28;20480;-78
2023/05/19 13:46:09;;;;;;;6.95;2.92;;;;;;;;;;5045439;28;20425;-78
2023/05/19 13:48:35;;;;;;;7.03;2.70;;;;;;;;;;5053034;28;20430;-86
2023/05/19 13:51:01;;;;;;;7.00;2.80;;;;;;;;;;5039166;28;20414;-86
2023/05/19 13:53:28;;;;;;;7.70;2.72;;;;;;;;;;5056039;28;20406;-86
2023/05/19 13:55:54;;;;;;;5.05;2.53;;;;;;;;;;5039217;28;20417;-87
2023/05/19 13:58:21;;;;;;;9.70;3.35;;;;;;;;;;5072227;28;20430;-78
2023/05/19 14:00:48;;;;;;;9.25;2.90;;;;;;;;;;5025058;23;20558;-84
2023/05/19 14:03:18;;;;;;;17.30;3.60;;;;;;;;;;5014683;28;20540;-84
2023/05/19 14:05:44;;;;;;;7.53;2.90;;;;;;;;;;5015418;28;20485;-80
2023/05/19 14:08:10;;;;;;;7.25;3.15;;;;;;;;;;4996152;28;20411;-81
2023/05/19 14:10:36;;;;;;;6.70;2.90;;;;;;;;;;5026285;28;20461;-80
2023/05/19 14:13:03;;;;;;;6.00;2.88;;;;;;;;;;5022837;28;20485;-79
2023/05/19 14:15:29;;;;;;;6.63;2.80;;;;;;;;;;5014519;28;20435;-79
2023/05/19 14:17:55;;;;;;;6.53;2.90;;;;;;;;;;5014846;28;20425;-80
2023/05/19 14:20:21;;;;;;;6.60;2.90;;;;;;;;;;5032019;28;20463;-80
2023/05/19 14:22:47;;;;;;;7.13;2.70;;;;;;;;;;5032858;28;20507;-86
2023/05/19 14:25:13;;;;;;;8.07;3.13;;;;;;;;;;5010697;28;20554;-84
2023/05/19 14:27:39;;;;;;;7.35;2.85;;;;;;;;;;5025187;28;20488;-83
2023/05/19 14:30:05;;;;;;;7.25;2.70;;;;;;;;;;5029678;28;20495;-83
2023/05/19 14:32:31;;;;;;;6.30;2.75;;;;;;;;;;5015320;28;20493;-83
2023/05/19 14:34:57;;;;;;;7.20;2.78;;;;;;;;;;5002693;28;20437;-83
2023/05/19 14:37:27;;;;;;;7.73;2.87;;;;;;;;;;5028431;28;20419;-78